Time;durP1;ratioP1;P1;durP2;ratioP2;P2;SDS_P1;SDS_P2;PMS_P1;PMS_P2;Temp;Humidity;BMP_temperature;BMP_pressure;BME280_temperature;BME280_humidity;BME280_pressure;Samples;Min_cycle;Max_cycle;Signal;HPM_P1;HPM_P2
2021/07/25 00:01:04;;;;;;;7.95;3.42;;;;;;;20.31;83.26;101382.50;1831692;78;20932;-76
2021/07/25 00:03:32;;;;;;;7.90;3.80;;;;;;;20.30;83.39;101392.70;1831765;78;20958;-76
2021/07/25 00:05:58;;;;;;;10.95;4.92;;;;;;;20.28;83.64;101388.06;1808373;78;21568;-77
2021/07/25 00:08:25;;;;;;;7.62;4.50;;;;;;;20.30;84.05;101390.54;1831759;78;20982;-77
2021/07/25 00:10:51;;;;;;;8.30;4.12;;;;;;;20.30;84.33;101385.27;1831865;78;21095;-77
2021/07/25 00:13:19;;;;;;;9.18;4.22;;;;;;;20.30;84.70;101389.22;1831791;78;21158;-76
2021/07/25 00:15:48;;;;;;;6.80;3.37;;;;;;;20.28;85.15;101383.28;1831776;78;20955;-74
2021/07/25 00:18:14;;;;;;;7.28;4.10;;;;;;;20.28;85.49;101387.23;1831596;78;20970;-73
2021/07/25 00:20:41;;;;;;;9.63;3.92;;;;;;;20.23;86.48;101386.30;1831706;78;20939;-74
2021/07/25 00:23:17;;;;;;;8.68;3.70;;;;;;;20.20;86.95;101383.16;1831720;78;36062;-75
2021/07/25 00:25:38;;;;;;;7.95;3.45;;;;;;;20.20;87.15;101383.16;1830856;78;21155;-75
2021/07/25 00:28:05;;;;;;;8.75;4.10;;;;;;;20.18;87.38;101384.61;1767198;77;21010;-76
2021/07/25 00:30:32;;;;;;;8.48;3.60;;;;;;;20.16;87.55;101385.25;1861625;77;20950;-75
2021/07/25 00:32:59;;;;;;;10.78;3.80;;;;;;;20.15;87.73;101386.22;1861570;77;20994;-76
2021/07/25 00:35:26;;;;;;;7.85;4.37;;;;;;;20.16;87.80;101383.10;1861494;77;20990;-76
2021/07/25 00:37:52;;;;;;;6.80;3.98;;;;;;;20.16;87.78;101389.20;1861307;77;21134;-74
2021/07/25 00:40:25;;;;;;;8.70;4.17;;;;;;;20.16;87.90;101386.57;1861420;77;21481;-73
2021/07/25 00:42:52;;;;;;;5.85;3.42;;;;;;;20.14;87.94;101387.19;1861598;77;21524;-75
2021/07/25 00:45:19;;;;;;;7.55;3.72;;;;;;;20.11;87.93;101382.69;1861066;77;21053;-74
2021/07/25 00:47:46;;;;;;;7.28;3.77;;;;;;;20.06;87.90;101385.30;1861161;77;21069;-74
2021/07/25 00:50:13;;;;;;;10.30;3.98;;;;;;;20.01;87.89;101384.05;1830257;77;22274;-75
2021/07/25 00:52:39;;;;;;;5.10;3.33;;;;;;;19.98;87.99;101393.07;1861366;77;20923;-75
2021/07/25 00:55:07;;;;;;;6.67;3.60;;;;;;;19.98;88.02;101384.34;1861371;77;20975;-75
2021/07/25 00:57:33;;;;;;;9.30;4.62;;;;;;;19.96;87.83;101385.81;1861436;77;20947;-76
2021/07/25 01:00:00;;;;;;;8.40;4.70;;;;;;;19.94;87.74;101378.52;1861627;77;20868;-75
2021/07/25 01:02:31;;;;;;;10.75;4.55;;;;;;;19.93;87.70;101380.83;1861443;77;21011;-74
2021/07/25 01:05:13;;;;;;;10.25;4.17;;;;;;;19.90;87.48;101381.12;1861318;77;20939;-75
2021/07/25 01:08:09;;;;;;;7.65;4.70;;;;;;;19.85;87.29;101378.07;1861368;77;20900;-76
2021/07/25 01:10:36;;;;;;;5.67;4.50;;;;;;;19.82;87.28;101378.36;1861000;77;21014;-76
2021/07/25 01:13:13;;;;;;;9.95;5.22;;;;;;;19.79;87.18;101382.59;1861372;77;20979;-77
2021/07/25 01:15:39;;;;;;;9.65;3.90;;;;;;;19.80;86.91;101379.48;1860572;77;21122;-76
2021/07/25 01:18:08;;;;;;;8.30;4.25;;;;;;;19.80;86.56;101380.80;1861169;77;20974;-74
2021/07/25 01:20:35;;;;;;;6.58;4.47;;;;;;;19.81;86.17;101383.78;1861673;77;21013;-73
2021/07/25 01:23:01;;;;;;;7.37;4.58;;;;;;;19.76;85.61;101382.88;1861336;77;20990;-74
2021/07/25 01:25:27;;;;;;;7.65;4.90;;;;;;;19.69;85.47;101379.66;1861674;77;20912;-75
2021/07/25 01:28:20;;;;;;;6.60;4.12;;;;;;;19.64;85.55;101383.19;1853489;77;21135;-75
2021/07/25 01:30:53;;;;;;;;;;;;;;;19.58;85.58;101384.59;1833849;78;20970;-74
2021/07/25 01:33:24;;;;;;;5.62;3.75;;;;;;;19.53;85.66;101386.33;1831825;77;20099;-75
2021/07/25 01:35:50;;;;;;;6.35;4.25;;;;;;;19.50;85.84;101385.30;1830598;78;20951;-75
2021/07/25 01:38:17;;;;;;;7.97;4.20;;;;;;;19.48;85.85;101389.87;1831944;78;21018;-74
2021/07/25 01:41:02;;;;;;;10.72;4.50;;;;;;;19.45;86.01;101393.28;1831793;78;21134;-73
2021/07/25 01:43:31;;;;;;;8.58;4.75;;;;;;;19.43;86.19;101388.65;1831598;78;20900;-74
2021/07/25 01:45:58;;;;;;;8.38;4.22;;;;;;;19.44;86.18;101396.39;1808218;78;20978;-74
2021/07/25 01:48:25;;;;;;;6.83;4.08;;;;;;;19.43;86.19;101388.14;1831905;78;21596;-74
2021/07/25 01:50:51;;;;;;;11.28;4.62;;;;;;;19.45;86.00;101390.64;1831805;78;21121;-75
2021/07/25 01:53:18;;;;;;;6.17;4.33;;;;;;;19.45;85.87;101395.91;1831625;78;21050;-75
2021/07/25 01:55:46;;;;;;;8.80;3.90;;;;;;;19.42;85.85;101398.34;1831738;78;21001;-75
2021/07/25 01:58:12;;;;;;;8.78;4.05;;;;;;;19.40;85.78;101398.14;1831825;78;20883;-75
2021/07/25 02:00:39;;;;;;;10.65;4.67;;;;;;;19.39;85.70;101401.22;1831734;78;20923;-75
2021/07/25 02:03:06;;;;;;;8.70;4.22;;;;;;;19.38;85.77;101402.66;1831913;78;20923;-73
2021/07/25 02:05:37;;;;;;;9.95;4.40;;;;;;;19.34;85.82;101398.64;1831990;78;20899;-74
2021/07/25 02:08:05;;;;;;;8.33;3.98;;;;;;;19.31;85.85;101402.87;1831797;78;20891;-74
2021/07/25 02:10:32;;;;;;;10.28;4.47;;;;;;;19.28;85.94;101403.98;1831755;78;20931;-74
2021/07/25 02:12:59;;;;;;;7.37;3.85;;;;;;;19.27;85.83;101404.14;1831864;78;21525;-75
2021/07/25 02:15:26;;;;;;;5.58;3.77;;;;;;;19.29;85.79;101411.41;1831970;78;20963;-75
2021/07/25 02:17:52;;;;;;;8.40;4.40;;;;;;;19.29;85.54;101416.66;1831834;78;21201;-75
2021/07/25 02:20:21;;;;;;;12.58;4.62;;;;;;;19.29;85.34;101420.13;1831754;78;20864;-76
2021/07/25 02:22:47;;;;;;;8.73;4.60;;;;;;;19.28;85.17;101418.94;1831993;78;20919;-75
2021/07/25 02:25:14;;;;;;;5.75;4.00;;;;;;;19.27;85.02;101416.79;1831919;78;20966;-73
2021/07/25 02:27:40;;;;;;;8.98;4.33;;;;;;;19.27;84.79;101415.47;1832207;78;21418;-72
2021/07/25 02:30:08;;;;;;;11.65;4.37;;;;;;;19.26;84.63;101418.26;1831791;78;21108;-74
2021/07/25 02:32:35;;;;;;;8.48;4.25;;;;;;;19.23;84.57;101423.80;1832174;78;21549;-75
2021/07/25 02:35:02;;;;;;;7.50;3.80;;;;;;;19.21;84.69;101424.44;1831838;78;20907;-75
2021/07/25 02:37:30;;;;;;;8.33;3.92;;;;;;;19.19;84.66;101425.88;1831925;78;20963;-74
2021/07/25 02:39:57;;;;;;;8.03;4.42;;;;;;;19.17;84.68;101425.67;1832051;78;21478;-73
2021/07/25 02:42:23;;;;;;;7.42;4.45;;;;;;;19.15;84.71;101433.69;1831811;78;21119;-75
2021/07/25 02:44:52;;;;;;;11.40;5.30;;;;;;;19.14;84.69;101439.94;1831764;78;21014;-75
2021/07/25 02:47:18;;;;;;;10.50;4.87;;;;;;;19.10;84.65;101438.55;1831840;78;21014;-76
2021/07/25 02:49:45;;;;;;;8.50;4.40;;;;;;;19.07;84.61;101442.77;1832101;78;20955;-76
2021/07/25 02:52:12;;;;;;;8.48;4.35;;;;;;;19.06;84.59;101444.20;1831606;78;21010;-77
2021/07/25 02:54:40;;;;;;;7.87;6.03;;;;;;;19.04;84.73;101448.30;1832147;78;21538;-76
2021/07/25 02:57:06;;;;;;;9.58;5.05;;;;;;;19.05;84.84;101446.00;1831786;78;21481;-77
2021/07/25 02:59:33;;;;;;;9.63;4.95;;;;;;;19.06;84.88;101446.36;1832591;78;20935;-77
2021/07/25 03:01:59;;;;;;;10.15;4.97;;;;;;;19.06;84.90;101447.67;1831705;78;20872;-77
2021/07/25 03:04:26;;;;;;;7.97;4.15;;;;;;;19.05;84.87;101451.26;1831768;78;20959;-75
2021/07/25 03:06:53;;;;;;;8.98;4.80;;;;;;;19.07;84.90;101449.82;1831730;78;21125;-75
2021/07/25 03:09:19;;;;;;;5.70;4.03;;;;;;;19.09;84.35;101450.50;1832396;78;21548;-77
2021/07/25 03:11:46;;;;;;;8.60;4.78;;;;;;;19.10;84.02;101454.81;1836187;78;20970;-76
2021/07/25 03:14:13;;;;;;;10.00;4.85;;;;;;;19.08;83.76;101456.76;1836329;75;20959;-75
2021/07/25 03:16:40;;;;;;;10.30;4.58;;;;;;;19.07;83.75;101457.72;1836496;75;20947;-76
2021/07/25 03:19:07;;;;;;;13.18;4.62;;;;;;;19.07;83.69;101458.55;1836333;75;21115;-76
2021/07/25 03:21:33;;;;;;;6.87;4.40;;;;;;;19.09;83.65;101455.29;1836036;78;20923;-77
2021/07/25 03:24:00;;;;;;;8.93;4.55;;;;;;;19.11;83.18;101460.43;1831737;78;21033;-75
2021/07/25 03:26:27;;;;;;;10.18;5.03;;;;;;;19.13;83.11;101457.16;1831874;78;20864;-75
2021/07/25 03:28:54;;;;;;;12.47;5.00;;;;;;;19.13;82.89;101456.69;1831972;78;21533;-74
2021/07/25 03:31:21;;;;;;;14.40;5.35;;;;;;;19.13;82.84;101459.31;1832012;78;21174;-74
2021/07/25 03:33:48;;;;;;;10.58;5.10;;;;;;;19.12;82.56;101457.64;1831498;78;20994;-74
2021/07/25 03:36:15;;;;;;;8.60;4.55;;;;;;;19.14;82.43;101459.67;1831615;78;21862;-73
2021/07/25 03:38:41;;;;;;;10.38;5.00;;;;;;;19.14;82.35;101460.16;1831554;78;20965;-74
2021/07/25 03:41:08;;;;;;;13.18;5.22;;;;;;;19.13;82.30;101463.27;1831727;78;21544;-76
2021/07/25 03:43:35;;;;;;;8.25;4.87;;;;;;;19.12;82.31;101462.91;1831820;78;21051;-75
2021/07/25 03:46:02;;;;;;;10.32;4.95;;;;;;;19.13;82.21;101461.95;1831520;78;20859;-75
2021/07/25 03:48:31;;;;;;;11.08;5.17;;;;;;;19.16;82.17;101467.41;1831607;78;20975;-75
2021/07/25 03:50:58;;;;;;;10.88;5.60;;;;;;;19.17;82.18;101461.20;1782142;78;20977;-76
2021/07/25 03:53:24;;;;;;;9.98;5.03;;;;;;;19.19;82.31;101461.39;1831919;78;21462;-76
2021/07/25 03:55:51;;;;;;;16.12;4.90;;;;;;;19.22;82.36;101461.13;1808594;78;21161;-76
2021/07/25 03:58:19;;;;;;;6.08;4.80;;;;;;;19.26;82.46;101463.00;1831739;78;20928;-77
2021/07/25 04:00:46;;;;;;;7.80;5.03;;;;;;;19.30;82.50;101457.33;1831534;78;20997;-76
2021/07/25 04:03:12;;;;;;;14.15;5.35;;;;;;;19.36;82.35;101461.20;1831648;78;20990;-74
2021/07/25 04:05:39;;;;;;;9.40;5.30;;;;;;;19.42;82.39;101464.63;1831229;78;21045;-75
2021/07/25 04:08:09;;;;;;;8.33;4.83;;;;;;;19.47;82.34;101459.77;1831546;78;22072;-75
2021/07/25 04:10:41;;;;;;;13.18;4.90;;;;;;;19.51;82.34;101460.68;1831547;78;20943;-76
2021/07/25 04:13:09;;;;;;;7.65;4.45;;;;;;;19.54;82.29;101456.93;1831567;78;20876;-77
2021/07/25 04:15:41;;;;;;;11.28;4.78;;;;;;;19.60;82.22;101459.00;1831868;78;20888;-76
2021/07/25 04:18:08;;;;;;;10.88;4.40;;;;;;;19.68;82.02;101464.89;1831930;78;20994;-76
2021/07/25 04:20:36;;;;;;;10.45;4.53;;;;;;;19.74;82.00;101463.02;1831775;78;21546;-77
2021/07/25 04:23:03;;;;;;;8.05;4.95;;;;;;;19.80;81.99;101468.55;1831822;78;20824;-78
2021/07/25 04:25:30;;;;;;;6.62;4.70;;;;;;;19.85;82.02;101464.99;1831657;78;21050;-76
2021/07/25 04:27:59;;;;;;;9.23;4.47;;;;;;;19.90;82.15;101462.78;1831664;78;20936;-75
2021/07/25 04:30:27;;;;;;;11.22;4.33;;;;;;;19.96;81.79;101464.84;1831865;77;20959;-75
2021/07/25 04:32:55;;;;;;;12.65;4.53;;;;;;;20.02;81.65;101462.12;1831619;78;21154;-73
2021/07/25 04:35:22;;;;;;;7.05;4.58;;;;;;;20.09;81.79;101464.53;1831897;78;20958;-73
2021/07/25 04:37:55;;;;;;;11.10;4.83;;;;;;;20.16;82.20;101461.68;1831740;78;20872;-75
2021/07/25 04:40:20;;;;;;;9.38;4.90;;;;;;;20.25;81.92;101466.56;1830971;77;20976;-73
2021/07/25 04:42:56;;;;;;;12.25;4.78;;;;;;;20.31;81.67;101460.75;1831828;78;21501;-74
2021/07/25 04:45:49;;;;;;;11.20;4.37;;;;;;;20.37;81.71;101468.91;1831860;78;21132;-74
2021/07/25 04:48:33;;;;;;;10.05;4.90;;;;;;;20.45;81.50;101470.84;1831752;78;20990;-75
2021/07/25 04:51:05;;;;;;;10.90;5.40;;;;;;;20.52;81.19;101470.56;1831732;78;20920;-72
2021/07/25 04:53:38;;;;;;;11.73;5.05;;;;;;;20.59;81.12;101469.85;1831897;78;20880;-75
2021/07/25 04:56:09;;;;;;;7.28;5.15;;;;;;;20.68;81.08;101472.09;1831520;78;20978;-75
2021/07/25 04:58:56;;;;;;;10.20;5.30;;;;;;;20.77;80.48;101475.67;1831928;78;21139;-76
2021/07/25 05:01:32;;;;;;;12.03;4.70;;;;;;;20.83;79.64;101481.20;1771987;78;20963;-77
2021/07/25 05:04:04;;;;;;;9.80;4.30;;;;;;;20.90;79.12;101476.16;1832001;78;21034;-77
2021/07/25 05:06:34;;;;;;;9.15;4.50;;;;;;;20.97;78.80;101478.52;1808991;78;20920;-77
2021/07/25 05:09:01;;;;;;;8.33;4.22;;;;;;;21.04;78.43;101479.11;1832121;78;20967;-76
2021/07/25 05:11:39;;;;;;;11.48;5.08;;;;;;;21.11;78.38;101480.70;1831915;78;21458;-75
2021/07/25 05:14:06;;;;;;;9.78;5.10;;;;;;;21.15;78.58;101478.11;1831045;78;21066;-76
2021/07/25 05:16:40;;;;;;;10.13;5.12;;;;;;;21.22;78.52;101483.10;1782300;78;21481;-76
2021/07/25 05:19:20;;;;;;;11.78;4.72;;;;;;;21.29;78.33;101484.17;1831600;78;21029;-75
2021/07/25 05:21:55;;;;;;;10.48;5.03;;;;;;;21.39;78.08;101485.42;1831713;78;21560;-75
2021/07/25 05:24:22;;;;;;;7.60;4.97;;;;;;;21.48;77.99;101489.30;1831900;78;21758;-75
2021/07/25 05:26:50;;;;;;;10.25;5.03;;;;;;;21.58;77.17;101485.26;1831870;78;21497;-76
2021/07/25 05:29:19;;;;;;;9.68;5.28;;;;;;;21.68;76.77;101491.78;1831637;77;20931;-76
2021/07/25 05:31:46;;;;;;;9.75;5.00;;;;;;;21.76;76.59;101492.66;1832099;78;21486;-75
2021/07/25 05:34:13;;;;;;;7.90;4.80;;;;;;;21.82;76.06;101490.75;1832062;78;20962;-76
2021/07/25 05:36:40;;;;;;;8.38;4.80;;;;;;;21.90;75.47;101494.80;1832101;78;21540;-77
2021/07/25 05:39:07;;;;;;;8.25;4.78;;;;;;;22.00;74.61;101493.38;1831762;78;20963;-77
2021/07/25 05:41:33;;;;;;;9.45;4.62;;;;;;;22.10;73.93;101495.44;1831879;78;20982;-77
2021/07/25 05:44:00;;;;;;;10.68;5.30;;;;;;;22.19;73.52;101493.17;1831573;78;20908;-75
2021/07/25 05:46:27;;;;;;;8.73;4.78;;;;;;;22.28;72.82;101496.20;1831954;78;21016;-76
2021/07/25 05:48:53;;;;;;;13.45;4.65;;;;;;;22.39;72.36;101495.11;1831586;78;21152;-76
2021/07/25 05:51:20;;;;;;;10.75;6.00;;;;;;;22.48;71.15;101495.48;1831657;78;21528;-73
2021/07/25 05:53:47;;;;;;;11.28;5.10;;;;;;;22.56;70.01;101495.02;1831638;78;20880;-74
2021/07/25 05:56:13;;;;;;;7.95;4.42;;;;;;;22.69;68.61;101497.77;1832088;78;21707;-76
2021/07/25 05:58:40;;;;;;;7.58;4.62;;;;;;;22.78;67.65;101498.97;1831746;78;20958;-74
2021/07/25 06:01:06;;;;;;;9.95;5.33;;;;;;;22.89;67.01;101497.33;1832093;78;21124;-77
2021/07/25 06:03:33;;;;;;;11.30;4.72;;;;;;;22.99;66.30;101498.52;1831915;78;20903;-77
2021/07/25 06:05:59;;;;;;;7.28;4.95;;;;;;;23.05;66.07;101490.77;1831788;78;20908;-77
2021/07/25 06:08:26;;;;;;;6.92;4.83;;;;;;;23.10;66.38;101489.77;1831691;78;21518;-76
2021/07/25 06:10:53;;;;;;;6.25;4.70;;;;;;;23.17;65.85;101490.78;1831631;78;21002;-76
2021/07/25 06:13:20;;;;;;;6.58;4.17;;;;;;;23.25;65.25;101493.12;1831771;78;21128;-77
2021/07/25 06:15:48;;;;;;;9.35;4.70;;;;;;;23.30;64.70;101494.28;1831966;78;20942;-77
2021/07/25 06:18:14;;;;;;;9.45;4.58;;;;;;;23.36;64.48;101490.97;1831820;78;21047;-78
2021/07/25 06:20:42;;;;;;;9.88;4.45;;;;;;;23.44;64.27;101491.52;1832039;78;20892;-78
2021/07/25 06:23:09;;;;;;;7.45;4.62;;;;;;;23.52;64.06;101494.16;1831629;78;21017;-77
2021/07/25 06:25:36;;;;;;;9.18;4.95;;;;;;;23.60;64.54;101494.17;1831675;78;21845;-76
2021/07/25 06:28:04;;;;;;;10.15;4.08;;;;;;;23.68;64.27;101492.84;1831705;78;20852;-77
2021/07/25 06:30:31;;;;;;;5.10;4.00;;;;;;;23.76;62.75;101498.64;1852962;75;21042;-78
2021/07/25 06:33:03;;;;;;;4.50;3.83;;;;;;;23.83;62.25;101493.85;1864805;77;20962;-77
2021/07/25 06:35:33;;;;;;;6.30;3.72;;;;;;;23.92;61.55;101492.01;1864598;77;21021;-75
2021/07/25 06:38:07;;;;;;;6.22;4.03;;;;;;;24.01;60.21;101493.65;1864490;76;21465;-76
2021/07/25 06:40:34;;;;;;;7.78;3.75;;;;;;;24.09;59.56;101493.12;1864475;77;20966;-77
2021/07/25 06:43:03;;;;;;;5.03;3.80;;;;;;;24.16;59.60;101495.47;1864812;77;20907;-77
2021/07/25 06:45:31;;;;;;;8.50;3.90;;;;;;;24.25;59.96;101494.94;1864863;77;21525;-76
2021/07/25 06:47:58;;;;;;;5.37;3.58;;;;;;;24.33;59.95;101490.96;1865121;77;21453;-78
2021/07/25 06:50:27;;;;;;;7.05;3.98;;;;;;;24.41;59.84;101499.41;1864956;77;21126;-75
2021/07/25 06:52:55;;;;;;;3.95;3.42;;;;;;;24.47;58.63;101496.06;1864552;77;21038;-77
2021/07/25 06:55:28;;;;;;;6.80;3.92;;;;;;;24.54;57.13;101495.68;1864416;77;20966;-76
2021/07/25 06:57:55;;;;;;;6.05;3.92;;;;;;;24.63;57.14;101497.33;1864794;76;20923;-77
2021/07/25 07:00:22;;;;;;;7.22;3.80;;;;;;;24.72;57.56;101498.95;1864634;77;20938;-78
2021/07/25 07:02:54;;;;;;;8.13;3.35;;;;;;;24.80;57.19;101498.89;1864531;76;21962;-76
2021/07/25 07:05:24;;;;;;;6.50;3.22;;;;;;;24.86;56.46;101498.23;1864892;76;21545;-76
2021/07/25 07:07:54;;;;;;;8.43;3.80;;;;;;;24.94;55.47;101501.36;1864906;76;21017;-77
2021/07/25 07:10:32;;;;;;;6.35;3.40;;;;;;;25.03;55.33;101504.29;1864585;77;21072;-76
2021/07/25 07:13:09;;;;;;;7.35;3.90;;;;;;;25.11;54.79;101505.06;1864572;77;20954;-77
2021/07/25 07:15:38;;;;;;;7.22;3.70;;;;;;;25.18;53.84;101501.20;1864694;77;20924;-77
2021/07/25 07:18:05;;;;;;;8.60;3.70;;;;;;;25.29;54.07;101500.81;1864776;77;20864;-77
2021/07/25 07:20:32;;;;;;;8.15;3.70;;;;;;;25.37;54.07;101503.92;1864684;77;21422;-76
2021/07/25 07:23:06;;;;;;;10.65;3.77;;;;;;;25.46;52.64;101508.17;1864813;77;20958;-75
2021/07/25 07:25:37;;;;;;;6.55;3.90;;;;;;;25.52;52.81;101508.33;1864285;77;21378;-76
2021/07/25 07:28:04;;;;;;;5.47;3.72;;;;;;;25.60;51.69;101510.91;1863203;77;21086;-75
2021/07/25 07:30:30;;;;;;;7.28;3.67;;;;;;;25.66;51.57;101505.37;1847682;77;21419;-76
2021/07/25 07:33:15;;;;;;;7.62;4.00;;;;;;;25.73;51.63;101503.66;1831651;78;20991;-76
2021/07/25 07:35:42;;;;;;;9.08;3.55;;;;;;;25.81;51.21;101502.27;1831979;78;21014;-76
2021/07/25 07:38:10;;;;;;;7.87;3.85;;;;;;;25.93;51.42;101509.30;1831730;78;21599;-77
2021/07/25 07:40:38;;;;;;;11.20;4.22;;;;;;;26.01;51.15;101504.72;1831822;78;21528;-76
2021/07/25 07:43:06;;;;;;;6.25;3.83;;;;;;;26.09;51.38;101505.15;1831727;78;20864;-82
2021/07/25 07:45:36;;;;;;;7.47;3.83;;;;;;;26.16;50.44;101496.80;1831833;78;20991;-75
2021/07/25 07:48:04;;;;;;;4.85;3.62;;;;;;;26.22;49.93;101501.39;1831494;78;20970;-81
2021/07/25 07:50:31;;;;;;;8.35;4.20;;;;;;;26.29;49.94;101501.79;1831706;78;20942;-81
2021/07/25 07:52:58;;;;;;;6.75;4.28;;;;;;;26.36;49.86;101501.08;1808380;78;20963;-74
2021/07/25 07:55:24;;;;;;;5.22;3.70;;;;;;;26.43;49.82;101502.81;1831962;78;20912;-73
2021/07/25 07:57:51;;;;;;;6.97;3.98;;;;;;;26.52;49.83;101502.20;1831801;78;21339;-77
2021/07/25 08:00:18;;;;;;;9.20;3.42;;;;;;;26.62;47.89;101501.41;1831886;78;21090;-75
2021/07/25 08:02:46;;;;;;;7.60;3.60;;;;;;;26.69;47.18;101501.83;1831739;78;20943;-76
2021/07/25 08:05:12;;;;;;;5.87;3.55;;;;;;;26.78;46.76;101503.88;1831638;78;21219;-76
2021/07/25 08:07:40;;;;;;;9.85;3.25;;;;;;;26.89;46.35;101506.10;1831538;78;21029;-75
2021/07/25 08:10:08;;;;;;;7.20;3.65;;;;;;;26.97;45.57;101505.14;1831690;78;21506;-75
2021/07/25 08:12:34;;;;;;;5.05;3.40;;;;;;;27.04;46.06;101508.72;1831634;78;20876;-77
2021/07/25 08:15:01;;;;;;;8.03;3.27;;;;;;;27.11;45.85;101505.63;1831788;78;21415;-77
2021/07/25 08:17:29;;;;;;;8.10;3.77;;;;;;;27.19;44.94;101505.49;1831979;78;21108;-79
2021/07/25 08:19:55;;;;;;;6.37;2.85;;;;;;;27.25;44.21;101506.89;1831661;78;21007;-79
2021/07/25 08:22:22;;;;;;;6.30;3.20;;;;;;;27.31;44.01;101510.12;1831754;78;20951;-76
2021/07/25 08:24:49;;;;;;;5.65;3.30;;;;;;;27.38;43.96;101503.53;1831769;78;21005;-76
2021/07/25 08:27:15;;;;;;;6.75;3.40;;;;;;;27.47;43.68;101506.95;1831915;78;21019;-77
2021/07/25 08:29:42;;;;;;;8.23;3.25;;;;;;;27.54;43.45;101511.30;1831925;78;21130;-82
2021/07/25 08:32:10;;;;;;;4.65;2.65;;;;;;;27.63;43.67;101502.69;1831460;78;20979;-77
2021/07/25 08:34:38;;;;;;;4.55;3.00;;;;;;;27.67;41.47;101499.93;1831950;78;21541;-77
2021/07/25 08:37:05;;;;;;;5.12;3.22;;;;;;;27.71;41.70;101506.03;1831779;78;20959;-78
2021/07/25 08:39:32;;;;;;;5.65;2.90;;;;;;;27.77;41.79;101497.26;1832055;78;20903;-76
2021/07/25 08:42:11;;;;;;;7.65;2.87;;;;;;;27.83;41.89;101500.48;1831694;78;21475;-78
2021/07/25 08:44:53;;;;;;;5.12;3.20;;;;;;;27.90;41.95;101499.20;1831693;78;20978;-77
2021/07/25 08:47:37;;;;;;;6.75;3.10;;;;;;;28.00;41.74;101499.69;1831730;78;20998;-77
2021/07/25 08:50:15;;;;;;;12.63;3.10;;;;;;;28.08;41.17;101489.42;1831689;78;21585;-76
2021/07/25 08:52:48;;;;;;;7.05;2.98;;;;;;;28.14;41.13;101501.47;1831828;78;20962;-76
2021/07/25 08:55:17;;;;;;;6.20;3.15;;;;;;;28.22;40.98;101493.30;1807742;78;21126;-78
2021/07/25 08:57:47;;;;;;;5.70;3.20;;;;;;;28.30;41.05;101498.46;1831618;78;21045;-80
2021/07/25 09:00:18;;;;;;;5.55;3.75;;;;;;;28.38;39.98;101494.31;1831758;78;20962;-77
2021/07/25 09:02:45;;;;;;;8.73;3.80;;;;;;;28.44;39.74;101496.70;1831363;78;21038;-78
2021/07/25 09:05:13;;;;;;;5.67;3.45;;;;;;;28.51;39.93;101498.90;1831670;78;21577;-76
2021/07/25 09:07:41;;;;;;;6.90;4.00;;;;;;;28.59;39.84;101496.05;1831813;78;21126;-75
2021/07/25 09:10:20;;;;;;;7.58;3.98;;;;;;;28.66;39.40;101502.78;1831808;78;20943;-75
2021/07/25 09:12:50;;;;;;;6.83;3.58;;;;;;;28.75;39.82;101506.96;1831585;78;21466;-75
2021/07/25 09:15:26;;;;;;;7.40;3.12;;;;;;;28.87;40.09;101503.51;1831749;78;21565;-78
2021/07/25 09:17:57;;;;;;;8.85;3.40;;;;;;;29.02;39.56;101504.67;1831753;78;20975;-74
2021/07/25 09:20:34;;;;;;;10.65;3.60;;;;;;;29.11;38.55;101501.30;1830505;78;21647;-79
2021/07/25 09:23:17;;;;;;;8.70;3.95;;;;;;;29.17;37.16;101481.27;1831804;78;20912;-76
2021/07/25 09:25:52;;;;;;;15.95;3.80;;;;;;;29.08;38.33;101505.20;1831455;78;21509;-73
2021/07/25 09:28:31;;;;;;;16.00;3.70;;;;;;;29.06;39.24;101506.44;1831304;77;20904;-82
2021/07/25 09:31:13;;;;;;;6.25;3.72;;;;;;;29.07;39.77;101505.42;1844895;77;20983;-77
2021/07/25 09:33:45;;;;;;;6.53;3.60;;;;;;;29.21;40.08;101508.41;1864834;77;21135;-76
2021/07/25 09:36:20;;;;;;;9.00;4.30;;;;;;;29.33;39.16;101500.96;1864146;77;20912;-77
2021/07/25 09:38:48;;;;;;;5.95;3.27;;;;;;;29.45;39.53;101509.23;1864739;77;20962;-77
2021/07/25 09:41:18;;;;;;;5.37;3.08;;;;;;;29.59;38.95;101508.19;1864722;77;21034;-77
2021/07/25 09:44:02;;;;;;;6.28;3.02;;;;;;;29.72;38.59;101508.20;1864717;77;21029;-75
2021/07/25 09:46:46;;;;;;;7.65;3.25;;;;;;;29.82;38.64;101501.95;1855410;77;21134;-78
2021/07/25 09:49:13;;;;;;;9.48;3.45;;;;;;;29.98;38.35;101503.88;1863056;77;20962;-81
2021/07/25 09:51:41;;;;;;;9.25;3.72;;;;;;;30.09;38.10;101505.40;1865004;77;20942;-77
2021/07/25 09:54:08;;;;;;;7.12;3.30;;;;;;;30.17;37.38;101505.70;1864703;77;20973;-78
2021/07/25 09:56:34;;;;;;;5.78;4.42;;;;;;;30.23;36.89;101506.20;1864835;77;20969;-78
2021/07/25 09:59:01;;;;;;;4.80;3.47;;;;;;;30.26;36.25;101510.63;1865045;77;21881;-85
2021/07/25 10:01:41;;;;;;;8.60;3.67;;;;;;;30.30;35.87;101509.19;1836334;77;20915;-77
2021/07/25 10:04:19;;;;;;;4.67;3.45;;;;;;;30.52;35.53;101504.92;1864536;76;21611;-77
2021/07/25 10:06:53;;;;;;;5.53;3.33;;;;;;;31.42;33.32;101511.38;1864652;76;20998;-76
2021/07/25 10:09:26;;;;;;;4.15;3.17;;;;;;;32.24;31.78;101501.70;1864692;77;20955;-76
2021/07/25 10:12:02;;;;;;;11.33;3.35;;;;;;;33.32;30.83;101497.75;1864766;76;21119;-76
2021/07/25 10:14:31;;;;;;;4.20;3.35;;;;;;;34.28;29.46;101496.02;1863594;77;21009;-78
2021/07/25 10:16:59;;;;;;;4.15;3.47;;;;;;;34.96;28.15;101485.28;1864874;77;20946;-77
2021/07/25 10:19:36;;;;;;;5.15;3.15;;;;;;;35.53;26.92;101492.23;1864897;77;21929;-80
2021/07/25 10:22:08;;;;;;;6.97;3.17;;;;;;;36.11;26.93;101482.05;1864834;76;20910;-76
2021/07/25 10:24:43;;;;;;;4.62;3.30;;;;;;;36.86;25.65;101483.48;1864811;76;21129;-78
2021/07/25 10:27:09;;;;;;;12.95;3.95;;;;;;;37.38;25.35;101482.38;1864648;77;21032;-78
2021/07/25 10:29:39;;;;;;;8.60;4.00;;;;;;;37.53;24.86;101485.22;1864798;77;20962;-82
2021/07/25 10:32:07;;;;;;;10.30;3.83;;;;;;;37.14;24.29;101485.98;1864271;76;20887;-79
2021/07/25 10:34:35;;;;;;;7.20;4.10;;;;;;;36.48;24.88;101488.45;1864537;77;21477;-85
2021/07/25 10:37:02;;;;;;;8.15;3.27;;;;;;;35.98;25.15;101491.30;1836233;77;21952;-77
2021/07/25 10:39:29;;;;;;;3.77;3.30;;;;;;;35.43;25.12;101491.23;1864724;77;20930;-82
2021/07/25 10:42:01;;;;;;;4.33;3.62;;;;;;;34.93;26.05;101483.89;1864582;77;20958;-76
2021/07/25 10:44:29;;;;;;;8.70;3.27;;;;;;;34.55;26.05;101482.31;1864465;77;21492;-77
2021/07/25 10:47:25;;;;;;;4.58;3.30;;;;;;;34.21;26.67;101484.58;1864359;76;20989;-76
2021/07/25 10:50:09;;;;;;;6.22;3.60;;;;;;;34.07;27.43;101483.14;1779923;80;21072;-79
2021/07/25 10:52:59;;;;;;;6.35;3.35;;;;;;;33.82;27.42;101482.06;1852752;77;20914;-77
2021/07/25 10:55:41;;;;;;;5.67;3.58;;;;;;;33.41;28.02;101487.77;1864542;76;21112;-76
2021/07/25 10:58:12;;;;;;;8.05;3.50;;;;;;;32.93;28.98;101485.15;1864735;77;21453;-78
2021/07/25 11:00:53;;;;;;;6.47;3.60;;;;;;;32.63;29.80;101482.99;1864902;77;20856;-77
2021/07/25 11:03:34;;;;;;;;;;;;;;;32.42;30.96;101480.20;1867681;77;21126;-75
2021/07/25 11:06:10;;;;;;;10.15;4.08;;;;;;;32.18;30.56;101485.66;1864685;77;20106;-75
2021/07/25 11:08:43;;;;;;;7.78;3.92;;;;;;;31.93;30.38;101491.06;1864823;77;20982;-76
2021/07/25 11:11:39;;;;;;;4.33;3.60;;;;;;;31.89;30.53;101497.39;1864857;76;20958;-75
2021/07/25 11:14:07;;;;;;;6.80;3.70;;;;;;;31.90;30.40;101492.84;1864835;77;21541;-76
2021/07/25 11:16:42;;;;;;;9.80;4.00;;;;;;;31.91;30.86;101488.58;1864759;77;21277;-77
2021/07/25 11:19:20;;;;;;;6.72;3.47;;;;;;;32.26;30.29;101488.07;1864440;77;20887;-75
2021/07/25 11:21:56;;;;;;;5.28;3.95;;;;;;;32.53;29.77;101473.78;1864776;77;20993;-76
2021/07/25 11:24:30;;;;;;;6.40;4.30;;;;;;;32.61;30.98;101475.69;1864739;77;20929;-80
2021/07/25 11:27:04;;;;;;;6.08;4.05;;;;;;;32.58;31.78;101468.60;1865118;76;20906;-79
2021/07/25 11:29:39;;;;;;;8.18;4.10;;;;;;;32.42;31.93;101467.32;1862666;77;21082;-78
2021/07/25 11:32:33;;;;;;;7.62;4.03;;;;;;;32.25;31.77;101458.21;1843870;77;20916;-81
2021/07/25 11:35:06;;;;;;;6.37;4.12;;;;;;;32.14;31.99;101460.29;1797940;80;20929;-79
2021/07/25 11:37:38;;;;;;;7.50;4.10;;;;;;;32.08;32.53;101456.64;1756917;80;20930;-78